Time;durP1;ratioP1;P1;durP2;ratioP2;P2;SDS_P1;SDS_P2;PMS_P1;PMS_P2;Temp;Humidity;BMP_temperature;BMP_pressure;BME280_temperature;BME280_humidity;BME280_pressure;Samples;Min_cycle;Max_cycle;Signal;HPM_P1;HPM_P2
2022/09/27 00:02:19;;;;;;;4.55;0.93;;;;;;;;;;5051561;28;20072;-63
2022/09/27 00:04:45;;;;;;;6.03;0.73;;;;;;;;;;5032213;28;20037;-63
2022/09/27 00:07:11;;;;;;;3.33;0.77;;;;;;;;;;5037604;28;20412;-63
2022/09/27 00:09:37;;;;;;;4.32;0.82;;;;;;;;;;5036468;28;20060;-64
2022/09/27 00:12:04;;;;;;;9.95;1.23;;;;;;;;;;5053398;28;20053;-63
2022/09/27 00:14:30;;;;;;;3.70;1.10;;;;;;;;;;5054017;28;20032;-63
2022/09/27 00:16:56;;;;;;;4.20;0.73;;;;;;;;;;5054246;28;20449;-63
2022/09/27 00:19:24;;;;;;;5.20;0.90;;;;;;;;;;5053663;28;20052;-63
2022/09/27 00:21:50;;;;;;;4.18;0.90;;;;;;;;;;5036391;28;20052;-63
2022/09/27 00:24:18;;;;;;;3.45;0.70;;;;;;;;;;5054817;28;20044;-64
2022/09/27 00:26:45;;;;;;;4.22;1.20;;;;;;;;;;5054168;28;20070;-64
2022/09/27 00:29:11;;;;;;;5.28;1.80;;;;;;;;;;5054826;28;20155;-64
2022/09/27 00:31:37;;;;;;;3.35;1.90;;;;;;;;;;5052123;28;20075;-64
2022/09/27 00:34:05;;;;;;;4.57;1.48;;;;;;;;;;5052862;28;20041;-64
2022/09/27 00:36:31;;;;;;;3.95;1.10;;;;;;;;;;5053975;28;20535;-64
2022/09/27 00:39:01;;;;;;;5.88;1.00;;;;;;;;;;5053318;28;20033;-64
2022/09/27 00:41:31;;;;;;;3.55;1.10;;;;;;;;;;5054364;28;20049;-64
2022/09/27 00:43:59;;;;;;;6.57;1.45;;;;;;;;;;5054187;28;20047;-63
2022/09/27 00:46:59;;;;;;;6.72;1.35;;;9.80;99.90;;;;;;5053964;28;20047;-64
2022/09/27 00:49:25;;;;;;;6.68;2.05;;;;;;;;;;5010514;28;20397;-64
2022/09/27 00:51:54;;;;;;;7.07;1.90;;;;;;;;;;5016487;28;20053;-65
2022/09/27 00:54:22;;;;;;;4.25;2.15;;;;;;;;;;5047760;28;20043;-64
2022/09/27 00:56:48;;;;;;;7.60;2.90;;;;;;;;;;5053739;28;20049;-64
2022/09/27 00:59:18;;;;;;;4.05;2.25;;;;;;;;;;5053443;28;20040;-63
2022/09/27 01:01:44;;;;;;;8.48;1.60;;;;;;;;;;5035808;28;20111;-64
2022/09/27 01:04:12;;;;;;;4.95;0.82;;;;;;;;;;5035414;28;20041;-64
2022/09/27 01:06:38;;;;;;;6.28;0.70;;;;;;;;;;5034018;28;20052;-64
2022/09/27 01:09:06;;;;;;;1.95;0.50;;;;;;;;;;5053055;28;20041;-64
2022/09/27 01:11:40;;;;;;;4.68;0.73;;;;;;;;;;5034567;28;20119;-63
2022/09/27 01:14:25;;;;;;;7.07;1.23;;;;;;;;;;5052693;28;20041;-63
2022/09/27 01:17:12;;;;;;;5.43;0.70;;;;;;;;;;5053211;28;20082;-63
2022/09/27 01:19:57;;;;;;;7.68;0.93;;;;;;;;;;5049057;28;20049;-63
2022/09/27 01:22:33;;;;;;;6.93;1.08;;;;;;;;;;5053970;28;20083;-63
2022/09/27 01:25:14;;;;;;;9.48;0.65;;;;;;;;;;5053833;28;20082;-64
2022/09/27 01:27:58;;;;;;;2.78;0.65;;;;;;;;;;5050319;28;20043;-64
2022/09/27 01:30:26;;;;;;;5.22;0.80;;;;;;;;;;5053526;28;20041;-64
2022/09/27 01:33:00;;;;;;;5.25;0.60;;;;;;;;;;5053288;28;20112;-64
2022/09/27 01:35:32;;;;;;;5.97;1.52;;;;;;;;;;5052756;28;20045;-64
2022/09/27 01:38:01;;;;;;;6.43;2.03;;;;;;;;;;5053683;28;20041;-64
2022/09/27 01:40:40;;;;;;;8.82;1.70;;;;;;;;;;5052921;28;20075;-65
2022/09/27 01:43:09;;;;;;;3.90;1.52;;;;;;;;;;5052390;28;20377;-64
2022/09/27 01:45:38;;;;;;;6.78;1.90;;;;;;;;;;5051503;28;20049;-64
2022/09/27 01:48:07;;;;;;;6.80;2.58;;;;;;;;;;5065609;22;20080;-65
2022/09/27 01:50:36;;;;;;;5.82;2.90;;;;;;;;;;5068399;22;20183;-64
2022/09/27 01:53:08;;;;;;;5.00;0.90;;;;;;;;;;5051259;28;20052;-66
2022/09/27 01:55:37;;;;;;;1.85;0.35;;;;;;;;;;5052370;28;20045;-66
2022/09/27 01:58:06;;;;;;;2.13;0.38;;;;;;;;;;5051664;28;20490;-66
2022/09/27 02:00:33;;;;;;;4.00;0.60;;;;;;;;;;5051268;28;20496;-65
2022/09/27 02:03:06;;;;;;;1.92;0.30;;;;;;;;;;5052871;28;20049;-65
2022/09/27 02:05:37;;;;;;;5.70;0.50;;;;;;;;;;5099849;22;20095;-66
2022/09/27 02:10:47;;;;;;;3.72;0.50;;;;;;;;;;4998152;22;20142;-65
2022/09/27 02:13:16;;;;;;;4.93;0.57;;;;;;;;;;5052516;28;20044;-66
2022/09/27 02:15:49;;;;;;;3.17;0.50;;;;;;;;;;5049064;28;20040;-64
2022/09/27 02:18:18;;;;;;;1.05;0.30;;;;;;;;;;5033597;28;20041;-65
2022/09/27 02:20:49;;;;;;;1.20;0.30;;;;;;;;;;5052280;28;20033;-66
2022/09/27 02:23:21;;;;;;;2.15;0.40;;;;;;;;;;5052531;28;20060;-66
2022/09/27 02:25:53;;;;;;;4.28;0.43;;;;;;;;;;5051380;28;20052;-65
2022/09/27 02:28:19;;;;;;;1.25;0.65;;;;;;;;;;5051513;28;20043;-65
2022/09/27 02:30:45;;;;;;;2.75;0.35;;;;;;;;;;5049887;28;20041;-66
2022/09/27 02:33:11;;;;;;;1.55;0.40;;;;;;;;;;5048737;28;20060;-66
2022/09/27 02:35:37;;;;;;;1.38;0.43;;;;;;;;;;5050980;28;20063;-66
2022/09/27 02:38:04;;;;;;;4.03;0.40;;;;;;;;;;5051691;28;20358;-66
2022/09/27 02:40:33;;;;;;;2.97;0.68;;;;;;;;;;5033751;28;20045;-65
2022/09/27 02:43:00;;;;;;;4.75;1.20;;;;;;;;;;5049812;28;20033;-65
2022/09/27 02:45:30;;;;;;;2.58;0.70;;;;;;;;;;5021534;28;20112;-65
2022/09/27 02:48:06;;;;;;;2.80;0.35;;;;;;;;;;5042958;28;20072;-65
2022/09/27 02:50:35;;;;;;;1.40;0.40;;;;;;;;;;5034297;28;20135;-65
2022/09/27 02:53:14;;;;;;;2.90;0.30;;;;;;;;;;5052275;28;20045;-65
2022/09/27 02:55:45;;;;;;;2.00;0.30;;;;;;;;;;5051079;28;20416;-65
2022/09/27 02:58:20;;;;;;;3.47;0.90;;;;;;;;;;5051068;28;20059;-65
2022/09/27 03:00:52;;;;;;;1.38;0.30;;;;;;;;;;5032892;28;20904;-65
2022/09/27 03:03:41;;;;;;;1.55;0.40;;;;;;;;;;5052093;28;20503;-65
2022/09/27 03:06:10;;;;;;;2.60;0.50;;;;;;;;;;5034477;28;20064;-65
2022/09/27 03:08:37;;;;;;;1.05;0.20;;;;;;;;;;5050196;28;20485;-65
2022/09/27 03:11:03;;;;;;;1.50;0.38;;;;;;;;;;5051162;28;20052;-64
2022/09/27 03:13:29;;;;;;;5.70;0.52;;;;;;;;;;5033429;28;20045;-65
2022/09/27 03:15:55;;;;;;;5.15;0.60;;;;;;;;;;5032709;28;20041;-65
2022/09/27 03:18:22;;;;;;;2.35;0.57;;;;;;;;;;5050983;28;20127;-65
2022/09/27 03:20:48;;;;;;;2.45;0.40;;;;;;;;;;5050987;28;20057;-64
2022/09/27 03:23:14;;;;;;;2.38;0.40;;;;;;;;;;5050962;28;20091;-64
2022/09/27 03:25:40;;;;;;;3.97;0.55;;;;;;;;;;5050583;28;20366;-64
2022/09/27 03:28:06;;;;;;;5.07;0.60;;;;;;;;;;5050918;28;20548;-64
2022/09/27 03:30:32;;;;;;;2.05;0.30;;;;;;;;;;5049343;28;20083;-65
2022/09/27 03:32:58;;;;;;;1.67;0.40;;;;;;;;;;5033488;28;20033;-65
2022/09/27 03:35:24;;;;;;;3.13;0.40;;;;;;;;;;5051903;28;20037;-64
2022/09/27 03:37:51;;;;;;;2.78;0.45;;;;;;;;;;5036609;28;20170;-64
2022/09/27 03:40:17;;;;;;;3.53;0.40;;;;;;;;;;5054605;28;20044;-65
2022/09/27 03:42:43;;;;;;;2.97;0.40;;;;;;;;;;5053034;28;20041;-64
2022/09/27 03:45:10;;;;;;;2.60;0.57;;;;;;;;;;5054640;28;20044;-64
2022/09/27 03:47:39;;;;;;;3.33;0.50;;;;;;;;;;5054965;28;20049;-64
2022/09/27 03:50:06;;;;;;;1.60;0.70;;;;;;;;;;5055558;28;20041;-64
2022/09/27 03:52:33;;;;;;;4.25;0.77;;;;;;;;;;5052736;28;20076;-64
2022/09/27 03:54:59;;;;;;;5.40;0.68;;;;;;;;;;5037712;28;20048;-64
2022/09/27 03:57:25;;;;;;;3.53;0.70;;;;;;;;;;5055275;28;20032;-64
2022/09/27 03:59:51;;;;;;;10.00;0.80;;;;;;;;;;5053184;28;20045;-64
2022/09/27 04:02:17;;;;;;;5.97;0.85;;;;;;;;;;5054054;28;20367;-64
2022/09/27 04:04:43;;;;;;;3.38;0.80;;;;;;;;;;5036652;28;20065;-64
2022/09/27 04:07:10;;;;;;;6.18;0.88;;;;;;;;;;5053655;28;20041;-64
2022/09/27 04:09:36;;;;;;;4.65;1.38;;;;;;;;;;5054587;28;20048;-64
2022/09/27 04:12:03;;;;;;;5.47;2.45;;;;;;;;;;5053569;28;20056;-64
2022/09/27 04:14:29;;;;;;;10.20;3.13;;;;;;;;;;5032741;28;20489;-64
2022/09/27 04:16:55;;;;;;;6.65;4.18;;;;;;;;;;5052258;28;20068;-64
2022/09/27 04:19:21;;;;;;;7.88;3.90;;;;;;;;;;5054963;28;20103;-64
2022/09/27 04:21:47;;;;;;;5.55;3.15;;;;;;;;;;5052576;28;20574;-63
2022/09/27 04:24:13;;;;;;;11.60;3.15;;;;;;;;;;5054862;28;20123;-63
2022/09/27 04:26:39;;;;;;;7.03;3.70;;;;;;;;;;5054160;28;20041;-64
2022/09/27 04:29:08;;;;;;;10.15;3.92;;;;;;;;;;5053726;28;20045;-63
2022/09/27 04:31:36;;;;;;;7.00;4.25;;;;;;;;;;5052906;28;20076;-64
2022/09/27 04:34:03;;;;;;;8.15;4.60;;;;;;;;;;5037049;28;20628;-64
2022/09/27 04:36:29;;;;;;;9.82;4.45;;;;;;;;;;5053786;28;20037;-63
2022/09/27 04:38:56;;;;;;;11.43;4.88;;;;;;;;;;5052902;28;20040;-64
2022/09/27 04:41:23;;;;;;;6.55;3.90;;;;;;;;;;5035720;28;20111;-64
2022/09/27 04:43:50;;;;;;;8.55;3.88;;;;;;;;;;5052001;28;20389;-63
2022/09/27 04:46:16;;;;;;;7.65;4.38;;;;;;;;;;5053782;28;20037;-64
2022/09/27 04:48:42;;;;;;;8.90;4.20;;;;;;;;;;5052884;28;20524;-64
2022/09/27 04:51:09;;;;;;;9.20;4.30;;;;;;;;;;5052544;28;20167;-64
2022/09/27 04:53:35;;;;;;;10.85;4.93;;;;;;;;;;5052488;28;20385;-64
2022/09/27 04:56:04;;;;;;;14.15;6.35;;;;;;;;;;5036445;28;20037;-64
2022/09/27 04:58:32;;;;;;;12.00;5.43;;;;;;;;;;5061696;28;20045;-64
2022/09/27 05:00:59;;;;;;;8.60;4.03;;;;;;;;;;5051766;28;20477;-64
2022/09/27 05:03:25;;;;;;;8.20;2.40;;;;;;;;;;5053053;28;20047;-64
2022/09/27 05:05:51;;;;;;;6.45;2.13;;;;;;;;;;5052707;28;20037;-65
2022/09/27 05:08:17;;;;;;;7.13;1.23;;;;;;;;;;5051406;28;20044;-63
2022/09/27 05:10:43;;;;;;;5.95;1.48;;;;;;;;;;5042090;28;20107;-64
2022/09/27 05:13:09;;;;;;;7.68;1.52;;;;;;;;;;5052570;28;20098;-64
2022/09/27 05:15:35;;;;;;;9.77;1.20;;;;;;;;;;5053195;28;20071;-64
2022/09/27 05:18:01;;;;;;;11.88;1.50;;;;;;;;;;5054020;28;20048;-64
2022/09/27 05:20:27;;;;;;;8.23;2.38;;;;;;;;;;5052716;28;20094;-64
2022/09/27 05:22:53;;;;;;;8.85;1.10;;;;;;;;;;5049673;28;20055;-64
2022/09/27 05:25:19;;;;;;;16.95;2.75;;;;;;;;;;5052511;28;20045;-64
2022/09/27 05:27:46;;;;;;;9.38;1.20;;;;;;;;;;5051635;28;20126;-65
2022/09/27 05:30:12;;;;;;;5.32;1.75;;;;;;;;;;5051696;28;20070;-64
2022/09/27 05:32:46;;;;;;;4.85;1.05;;;;;;;;;;5049695;28;20119;-64
2022/09/27 05:35:13;;;;;;;7.85;1.80;;;;;;;;;;5052909;28;20084;-64
2022/09/27 05:37:39;;;;;;;7.68;2.15;;;;;;;;;;5035282;28;20037;-63
2022/09/27 05:40:06;;;;;;;11.35;3.45;;;;;;;;;;5053110;28;20071;-63
2022/09/27 05:42:37;;;;;;;9.15;2.20;;;;;;;;;;5034340;28;20051;-63
2022/09/27 05:45:04;;;;;;;7.78;3.15;;;;;;;;;;5039949;28;20109;-63
2022/09/27 05:47:30;;;;;;;4.05;1.25;;;;;;;;;;5032971;28;20126;-64
2022/09/27 05:49:56;;;;;;;7.70;1.10;;;;;;;;;;5050469;28;20043;-63
2022/09/27 05:52:22;;;;;;;7.30;1.00;;;;;;;;;;5051812;28;20063;-63
2022/09/27 05:54:48;;;;;;;4.97;0.70;;;;;;;;;;5052795;28;20126;-64
2022/09/27 05:57:14;;;;;;;5.25;1.20;;;;;;;;;;5052520;28;20090;-64
2022/09/27 05:59:40;;;;;;;4.03;1.13;;;;;;;;;;5049956;28;20041;-64
2022/09/27 06:02:06;;;;;;;6.70;1.02;;;;;;;;;;5052798;28;20037;-64
2022/09/27 06:04:32;;;;;;;6.93;0.95;;;;;;;;;;5058948;28;20513;-64
2022/09/27 06:06:58;;;;;;;4.57;1.00;;;;;;;;;;5051977;28;20047;-64
2022/09/27 06:09:27;;;;;;;5.00;1.00;;;;;;;;;;5067097;28;20037;-64
2022/09/27 06:11:53;;;;;;;5.72;1.20;;;;;;;;;;5052470;28;20053;-64
2022/09/27 06:14:19;;;;;;;6.07;1.00;;;;;;;;;;5035366;28;20082;-64
2022/09/27 06:16:46;;;;;;;4.72;1.00;;;;;;;;;;5033275;28;20045;-64
2022/09/27 06:19:12;;;;;;;4.60;0.65;;;;;;;;;;5032337;28;20076;-64
2022/09/27 06:21:38;;;;;;;3.45;0.90;;;;;;;;;;5051520;28;20075;-64
2022/09/27 06:24:04;;;;;;;3.92;1.40;;;;;;;;;;5032318;28;20124;-64
2022/09/27 06:26:30;;;;;;;3.53;1.13;;;;;;;;;;5032937;28;20077;-64
2022/09/27 06:28:56;;;;;;;3.70;1.55;;;;;;;;;;5035091;28;20045;-64
2022/09/27 06:31:22;;;;;;;4.55;1.00;;;;;;;;;;5051103;28;20049;-64
2022/09/27 06:33:49;;;;;;;4.10;0.68;;;;;;;;;;5048517;28;20188;-64
2022/09/27 06:36:15;;;;;;;5.95;1.02;;;;;;;;;;5034750;28;20053;-64
2022/09/27 06:38:41;;;;;;;3.67;0.80;;;;;;;;;;5034455;28;20080;-64
2022/09/27 06:41:08;;;;;;;6.65;1.17;;;;;;;;;;5052156;28;20127;-64
2022/09/27 06:43:34;;;;;;;2.97;0.60;;;;;;;;;;5050369;28;20044;-66
2022/09/27 06:46:04;;;;;;;2.75;0.80;;;;;;;;;;5052192;28;20086;-64
2022/09/27 06:48:30;;;;;;;6.60;0.63;;;;;;;;;;5050060;28;20052;-64
2022/09/27 06:50:57;;;;;;;5.78;0.57;;;;;;;;;;5052224;28;20066;-64
2022/09/27 06:53:23;;;;;;;4.07;0.80;;;;;;;;;;5051088;28;20166;-65
2022/09/27 06:55:53;;;;;;;2.65;0.77;;;;;;;;;;5048886;28;20041;-64
2022/09/27 07:01:03;;;;;;;5.55;1.20;;;;;;;;;;5051000;28;20041;-64
2022/09/27 07:03:34;;;;;;;5.70;1.80;;;;;;;;;;5040194;28;20171;-64
2022/09/27 07:06:05;;;;;;;5.75;0.88;;;;;;;;;;5051175;28;20041;-64
2022/09/27 07:08:32;;;;;;;4.75;0.75;;;;;;;;;;5034324;28;20053;-64
2022/09/27 07:11:02;;;;;;;2.13;0.40;;;;;;;;;;5053313;28;20135;-64
2022/09/27 07:13:33;;;;;;;3.80;0.95;;;;;;;;;;5053546;28;20520;-64
2022/09/27 07:15:59;;;;;;;3.25;0.68;;;;;;;;;;5054911;28;20048;-64
2022/09/27 07:18:25;;;;;;;5.13;0.70;;;;;;;;;;5055157;28;20041;-64
2022/09/27 07:20:52;;;;;;;6.10;0.60;;;;;;;;;;5055027;28;20055;-65
2022/09/27 07:23:19;;;;;;;9.48;1.15;;;;;;;;;;5053332;28;20029;-64
2022/09/27 07:25:46;;;;;;;3.83;0.60;;;;;;;;;;5037450;28;20056;-64
2022/09/27 07:28:16;;;;;;;2.28;0.40;;;;;;;;;;5054769;28;20481;-64
2022/09/27 07:30:42;;;;;;;1.93;0.47;;;;;;;;;;5053238;28;20041;-64
2022/09/27 07:33:08;;;;;;;3.53;0.73;;;;;;;;;;5054368;28;20292;-64
2022/09/27 07:35:38;;;;;;;6.10;1.17;;;;;;;;;;5053865;28;20057;-63
2022/09/27 07:38:07;;;;;;;3.33;0.52;;;;;;;;;;5055761;28;20045;-64
2022/09/27 07:40:33;;;;;;;6.05;0.60;;;;;;;;;;5049303;28;20044;-65
2022/09/27 07:42:59;;;;;;;3.05;0.50;;;;;;;;;;5054332;28;20445;-65
2022/09/27 07:45:26;;;;;;;4.28;0.52;;;;;;;;;;5054728;28;20041;-64
2022/09/27 07:47:52;;;;;;;3.08;0.65;;;;;;;;;;5048035;28;20125;-64
2022/09/27 07:50:18;;;;;;;6.03;1.08;;;;;;;;;;5046435;28;20045;-63
2022/09/27 07:52:45;;;;;;;2.80;0.47;;;;;;;;;;5034370;28;20095;-64
2022/09/27 07:55:12;;;;;;;3.08;0.52;;;;;;;;;;5055230;28;20090;-64
2022/09/27 07:57:38;;;;;;;3.38;0.80;;;;;;;;;;5054387;28;20048;-64
2022/09/27 08:00:09;;;;;;;2.88;0.55;;;;;;;;;;5053379;28;20045;-64
2022/09/27 08:02:34;;;;;;;;;;;11.20;99.90;;;;;;5053704;28;20041;-64
2022/09/27 08:05:01;;;;;;;2.65;0.65;;;;;;;;;;5033703;28;19917;-65
2022/09/27 08:07:28;;;;;;;2.03;0.60;;;;;;;;;;5054734;28;20047;-64
2022/09/27 08:09:54;;;;;;;6.88;0.65;;;;;;;;;;5047498;28;20374;-64
2022/09/27 08:12:21;;;;;;;2.92;1.08;;;;;;;;;;5053305;28;20052;-64
2022/09/27 08:14:51;;;;;;;1.45;0.38;;;;;;;;;;5053298;28;20049;-64
2022/09/27 08:17:18;;;;;;;4.05;0.50;;;;;;;;;;5054009;28;20044;-63
2022/09/27 08:19:44;;;;;;;2.78;0.50;;;;;;;;;;5054021;28;20438;-64
2022/09/27 08:22:13;;;;;;;1.70;0.40;;;;;;;;;;5049440;28;20041;-65
2022/09/27 08:24:39;;;;;;;1.85;0.40;;;;;;;;;;5032903;28;20045;-65
2022/09/27 08:27:06;;;;;;;1.83;0.40;;;;;;;;;;5049522;28;20041;-65
2022/09/27 08:29:33;;;;;;;2.45;0.63;;;;;;;;;;5054091;28;20064;-65
2022/09/27 08:31:59;;;;;;;2.78;0.68;;;;;;;;;;5033298;28;20045;-65
2022/09/27 08:34:27;;;;;;;2.03;0.50;;;;;;;;;;5052669;28;20059;-65
2022/09/27 08:36:54;;;;;;;4.20;1.08;;;;;;;;;;5051063;28;20077;-65
2022/09/27 08:39:20;;;;;;;2.45;0.70;;;;;;;;;;5054852;28;20112;-65
2022/09/27 08:41:46;;;;;;;5.85;1.83;;;;;;;;;;5043336;28;20723;-65
2022/09/27 08:44:12;;;;;;;5.07;1.35;;;;;;;;;;5052816;28;20063;-64
2022/09/27 08:46:38;;;;;;;6.38;2.25;;;;;;;;;;5048076;28;20043;-64
2022/09/27 08:49:06;;;;;;;3.88;0.93;;;;;;;;;;5045715;28;20083;-64
2022/09/27 08:51:33;;;;;;;7.53;0.85;;;;;;;;;;5051482;28;20068;-64
2022/09/27 08:54:06;;;;;;;6.07;1.60;;;;;;;;;;5051251;28;20103;-65
2022/09/27 08:56:32;;;;;;;2.75;0.77;;;;;;;;;;5054438;28;20099;-65
2022/09/27 08:59:04;;;;;;;3.05;0.98;;;;;;;;;;5045834;28;20041;-65
2022/09/27 09:01:30;;;;;;;5.88;1.58;;;;;;;;;;5052370;28;20052;-65
2022/09/27 09:03:58;;;;;;;1.92;0.50;;;;;;;;;;5041878;28;20043;-65
2022/09/27 09:06:29;;;;;;;3.92;0.60;;;;;;;;;;5052414;28;20075;-65
2022/09/27 09:09:04;;;;;;;4.05;0.50;;;;;;;;;;5052192;28;20041;-66
2022/09/27 09:14:43;;;;;;;4.28;0.73;;;;;;;;;;5052567;28;20072;-67
2022/09/27 09:17:15;;;;;;;4.50;0.80;;;;;;;;;;5051475;28;20037;-67
2022/09/27 09:19:59;;;;;;;6.85;0.90;;;;;;;;;;5050510;28;20067;-67
2022/09/27 09:22:34;;;;;;;5.95;0.60;;;;;;;;;;5059154;28;20036;-67
2022/09/27 09:25:30;;;;;;;4.53;0.95;;;;;;;;;;5050941;28;20564;-67
2022/09/27 09:28:19;;;;;;;1.83;0.65;;;;;;;;;;5036224;28;20041;-67
2022/09/27 09:30:48;;;;;;;2.65;1.05;;;;;;;;;;4964305;22;20127;-67
2022/09/27 09:33:26;;;;;;;5.78;0.82;;;;;;;;;;5041106;28;20081;-68
2022/09/27 09:35:57;;;;;;;1.38;0.60;;;;;;;;;;5032285;28;20045;-67
2022/09/27 09:38:27;;;;;;;3.42;0.55;;;;;;;;;;5041134;28;20405;-67
2022/09/27 09:40:53;;;;;;;2.37;0.50;;;;;;;;;;5051216;28;20094;-67
2022/09/27 09:43:29;;;;;;;3.95;0.70;;;;;;;;;;5052257;28;20044;-67
2022/09/27 09:46:16;;;;;;;4.53;0.77;;;;;;;;;;5035434;28;20060;-67
2022/09/27 09:48:48;;;;;;;2.92;0.93;;;;;;;;;;5037199;28;20045;-67
2022/09/27 09:51:22;;;;;;;8.15;0.90;;;;;;;;;;5038931;28;20115;-66
2022/09/27 09:53:52;;;;;;;2.00;0.60;;;;;;;;;;5050411;28;20057;-67
2022/09/27 09:56:23;;;;;;;7.83;0.53;;;;;;;;;;5034026;28;20041;-67
2022/09/27 09:58:53;;;;;;;3.55;0.77;;;;;;;;;;5034247;28;20132;-67
2022/09/27 10:01:25;;;;;;;2.40;0.40;;;;;;;;;;5052019;28;20051;-67
2022/09/27 10:03:51;;;;;;;2.35;0.60;;;;;;;;;;5051293;28;20048;-67
2022/09/27 10:06:17;;;;;;;1.48;0.70;;;;;;;;;;5035104;28;20485;-65
2022/09/27 10:08:43;;;;;;;1.50;0.28;;;;;;;;;;5032745;28;20044;-66
2022/09/27 10:11:21;;;;;;;2.42;0.35;;;;;;;;;;5028609;28;20104;-66
2022/09/27 10:13:47;;;;;;;0.73;0.30;;;;;;;;;;5051771;28;20513;-65
2022/09/27 10:16:15;;;;;;;0.47;0.30;;;;;;;;;;5027785;28;20041;-66
2022/09/27 10:18:41;;;;;;;0.32;0.20;;;;;;;;;;5050148;28;20045;-65
2022/09/27 10:21:11;;;;;;;2.42;0.40;;;;;;;;;;5023499;28;20042;-66
2022/09/27 10:23:57;;;;;;;2.38;0.40;;;;;;;;;;5018684;28;20141;-65
2022/09/27 10:26:23;;;;;;;0.95;0.40;;;;;;;;;;5051686;28;20063;-65
2022/09/27 10:28:51;;;;;;;3.13;0.45;;;;;;;;;;5052106;28;20144;-66
2022/09/27 10:31:18;;;;;;;1.10;1.00;;;;;;;;;;5061163;28;20114;-66
2022/09/27 10:34:04;;;;;;;3.05;0.50;;;;;;;;;;5070275;28;20445;-66
2022/09/27 10:36:31;;;;;;;2.00;0.40;;;;;;;;;;5053058;28;20496;-66
2022/09/27 10:38:59;;;;;;;5.20;0.70;;;;;;;;;;5068188;28;20127;-65
2022/09/27 10:41:33;;;;;;;2.20;0.50;;;;;;;;;;5072388;28;20051;-66
2022/09/27 10:44:19;;;;;;;2.40;0.63;;;;;;;;;;5054131;28;20040;-66
2022/09/27 10:46:48;;;;;;;3.20;0.50;;;;;;;;;;5070665;28;20067;-65
2022/09/27 10:49:23;;;;;;;2.50;0.57;;;;;;;;;;5052865;28;20053;-66
2022/09/27 10:51:50;;;;;;;1.05;0.30;;;;;;;;;;5071919;28;20091;-68
2022/09/27 10:54:21;;;;;;;2.92;0.40;;;;;;;;;;5070880;28;20076;-66
2022/09/27 10:56:54;;;;;;;0.98;0.32;;;;;;;;;;5069371;28;20148;-64
2022/09/27 10:59:21;;;;;;;1.83;0.50;;;;;;;;;;5064372;28;20063;-65
2022/09/27 11:01:49;;;;;;;3.20;0.47;;;;;;;;;;5069149;28;20048;-65
2022/09/27 11:04:28;;;;;;;1.65;0.40;;;;;;;;;;5065696;28;20051;-65
2022/09/27 11:07:14;;;;;;;1.30;0.50;;;13.10;99.90;;;;;;5071291;28;20115;-64
2022/09/27 11:09:53;;;;;;;1.45;0.40;;;;;;;;;;5078418;28;20123;-64
2022/09/27 11:12:21;;;;;;;0.98;0.50;;;;;;;;;;5070974;28;20049;-64
2022/09/27 11:14:56;;;;;;;1.38;0.40;;;;;;;;;;5069524;28;20048;-64
2022/09/27 11:17:26;;;;;;;2.83;0.57;;;;;;;;;;5052664;28;20048;-64
2022/09/27 11:19:58;;;;;;;1.38;0.35;;;;;;;;;;5051500;28;20072;-63
2022/09/27 11:22:27;;;;;;;3.03;0.60;;;;;;;;;;5071400;28;20117;-63
2022/09/27 11:25:13;;;;;;;3.42;0.93;;;;;;;;;;5042394;28;20047;-64
2022/09/27 11:27:42;;;;;;;2.00;0.60;;;;;;;;;;5037543;28;20053;-64
2022/09/27 11:30:10;;;;;;;4.72;0.57;;;;;;;;;;5047334;28;20036;-65
2022/09/27 11:33:06;;;;;;;6.07;0.70;;;13.50;99.90;;;;;;5063755;28;20052;-64
2022/09/27 11:35:41;;;;;;;4.43;0.63;;;;;;;;;;5069903;28;20044;-65
2022/09/27 11:38:27;;;;;;;7.75;1.25;;;;;;;;;;5069907;28;20049;-64
2022/09/27 11:40:57;;;;;;;4.75;0.70;;;;;;;;;;5070964;28;20055;-63
2022/09/27 11:43:41;;;;;;;6.03;0.98;;;;;;;;;;5034644;28;20124;-63
2022/09/27 11:46:26;;;;;;;6.50;1.10;;;;;;;;;;5059250;28;20040;-64
2022/09/27 11:49:12;;;;;;;4.57;0.63;;;;;;;;;;5054377;28;20059;-64
2022/09/27 11:51:45;;;;;;;4.70;1.10;;;;;;;;;;5071582;28;20127;-64
2022/09/27 11:54:17;;;;;;;6.15;1.20;;;;;;;;;;5072032;28;20607;-63
2022/09/27 11:56:49;;;;;;;5.07;1.40;;;;;;;;;;5072472;28;20045;-63
2022/09/27 11:59:15;;;;;;;5.32;0.90;;;;;;;;;;5057666;28;20120;-63
2022/09/27 12:01:54;;;;;;;4.20;0.95;;;;;;;;;;5071758;28;20448;-63
2022/09/27 12:04:37;;;;;;;6.80;1.10;;;;;;;;;;5070528;28;20039;-63
2022/09/27 12:07:21;;;;;;;3.90;0.70;;;;;;;;;;5055134;28;20045;-63
2022/09/27 12:09:53;;;;;;;9.90;1.40;;;;;;;;;;5063823;28;20135;-63
2022/09/27 12:12:21;;;;;;;3.00;0.70;;;;;;;;;;5056674;28;20048;-63
2022/09/27 12:14:51;;;;;;;3.50;1.05;;;;;;;;;;5074566;28;20040;-63
2022/09/27 12:17:26;;;;;;;3.30;0.60;;;;;;;;;;5066067;28;20044;-63
2022/09/27 12:19:54;;;;;;;3.10;0.50;;;;;;;;;;5070445;28;20071;-64
2022/09/27 12:22:29;;;;;;;4.43;1.20;;;;;;;;;;5073874;28;20051;-63
2022/09/27 12:24:55;;;;;;;3.13;0.57;;;;;;;;;;5066547;28;20044;-63
2022/09/27 12:27:33;;;;;;;5.45;0.52;;;;;;;;;;5074794;28;20386;-63
2022/09/27 12:30:00;;;;;;;4.90;0.50;;;;;;;;;;5066635;28;20049;-64
2022/09/27 12:32:30;;;;;;;2.30;0.50;;;;;;;;;;5073456;28;20097;-65
2022/09/27 12:34:56;;;;;;;6.20;1.02;;;;;;;;;;5072713;28;20047;-63
2022/09/27 12:37:34;;;;;;;3.40;0.60;;;;;;;;;;5074255;28;20040;-63
2022/09/27 12:40:19;;;;;;;3.25;1.13;;;;;;;;;;5074444;28;20101;-63
2022/09/27 12:42:50;;;;;;;2.53;0.57;;;;;;;;;;5040448;28;20056;-62
2022/09/27 12:45:16;;;;;;;4.68;1.52;;;;;;;;;;5074425;28;20071;-63
2022/09/27 12:47:48;;;;;;;2.35;0.50;;;;;;;;;;5073816;28;20462;-62
2022/09/27 12:50:24;;;;;;;1.40;0.40;;;;;;;;;;5074059;28;20048;-63
2022/09/27 12:52:53;;;;;;;2.80;0.52;;;;;;;;;;5074329;28;20429;-63
2022/09/27 12:55:29;;;;;;;2.75;0.55;;;;;;;;;;5072720;28;20056;-64
2022/09/27 12:58:10;;;;;;;4.47;0.50;;;;;;;;;;5074051;28;20044;-64
2022/09/27 13:00:50;;;;;;;3.97;0.73;;;;;;;;;;5070115;28;20055;-63
2022/09/27 13:03:25;;;;;;;1.45;0.40;;;;;;;;;;5056428;28;20511;-64
2022/09/27 13:09:06;;;;;;;2.40;0.40;;;;;;;;;;5092205;22;20059;-63
2022/09/27 13:11:41;;;;;;;2.47;0.45;;;;;;;;;;5024157;28;20057;-63
2022/09/27 13:14:15;;;;;;;1.10;0.40;;;;;;;;;;5016682;28;20041;-63
2022/09/27 13:16:42;;;;;;;0.73;0.25;;;;;;;;;;5033919;28;20085;-63
2022/09/27 13:19:28;;;;;;;3.22;0.40;;;;;;;;;;4982380;28;20045;-63
2022/09/27 13:21:56;;;;;;;2.30;0.55;;;;;;;;;;5014475;28;20049;-63
2022/09/27 13:24:31;;;;;;;0.75;0.30;;;;;;;;;;5056436;22;20079;-63
2022/09/27 13:27:17;;;;;;;3.13;0.60;;;;;;;;;;5079236;22;20501;-64
2022/09/27 13:29:43;;;;;;;2.15;0.40;;;;;;;;;;4978936;28;20138;-63
2022/09/27 13:32:16;;;;;;;2.38;0.50;;;;;;;;;;4971438;28;20053;-64
2022/09/27 13:34:47;;;;;;;3.20;0.40;;;;;;;;;;4967294;28;20696;-64
2022/09/27 13:37:28;;;;;;;1.15;0.40;;;;;;;;;;4951046;28;20045;-63
2022/09/27 13:40:14;;;;;;;2.70;0.60;;;;;;;;;;4965638;28;20541;-64
2022/09/27 13:42:45;;;;;;;2.30;0.40;;;;;;;;;;4983625;28;20081;-63
2022/09/27 13:45:25;;;;;;;3.90;0.65;;;;;;;;;;4977843;28;20050;-63
2022/09/27 13:47:51;;;;;;;2.47;0.50;;;;;;;;;;4979580;28;20046;-63
2022/09/27 13:50:25;;;;;;;2.08;0.22;;;;;;;;;;4993873;28;20098;-63
2022/09/27 13:53:01;;;;;;;1.67;0.40;;;;;;;;;;4993663;28;20046;-63
2022/09/27 13:55:50;;;;;;;2.80;0.50;;;;;;;;;;4980457;28;20074;-63
2022/09/27 13:58:44;;;;;;;1.55;0.75;;;10.30;99.90;;;;;;4966999;28;20491;-62
2022/09/27 14:01:17;;;;;;;3.72;0.60;;;;;;;;;;4980862;28;20117;-63
2022/09/27 14:03:43;;;;;;;3.00;0.68;;;;;;;;;;4976345;28;20506;-64
2022/09/27 14:06:13;;;;;;;2.35;0.40;;;;;;;;;;4967801;28;20089;-64
2022/09/27 14:08:55;;;;;;;1.58;0.30;;;;;;;;;;4993728;28;20502;-64
2022/09/27 14:11:27;;;;;;;1.88;0.40;;;;;;;;;;4980227;28;20058;-65
2022/09/27 14:13:53;;;;;;;1.15;0.28;;;;;;;;;;4982378;28;20069;-65
2022/09/27 14:16:20;;;;;;;2.53;0.98;;;;;;;;;;4984797;28;20621;-64
2022/09/27 14:18:57;;;;;;;0.85;0.38;;;;;;;;;;4979673;28;20139;-65
2022/09/27 14:21:33;;;;;;;4.22;0.60;;;;;;;;;;4978418;28;20078;-65
2022/09/27 14:24:20;;;;;;;3.40;0.52;;;10.30;99.90;;;;;;4974699;28;20415;-65
2022/09/27 14:26:47;;;;;;;3.90;0.60;;;;;;;;;;4977668;28;20579;-65
2022/09/27 14:29:20;;;;;;;3.00;0.77;;;;;;;;;;4973795;28;20055;-66
2022/09/27 14:31:50;;;;;;;4.45;1.00;;;;;;;;;;4964012;28;20173;-66
2022/09/27 14:34:16;;;;;;;8.27;1.40;;;;;;;;;;4977436;28;20384;-65
2022/09/27 14:39:34;;;;;;;3.92;0.50;;;;;;;;;;4992908;28;20086;-65
2022/09/27 14:42:03;;;;;;;2.22;0.60;;;;;;;;;;4991043;28;20058;-65
2022/09/27 14:44:30;;;;;;;4.13;0.60;;;;;;;;;;4983954;28;20085;-65
2022/09/27 14:47:09;;;;;;;2.60;0.38;;;;;;;;;;4978393;28;20062;-65
2022/09/27 14:49:35;;;;;;;3.22;0.50;;;;;;;;;;4973285;28;20519;-65
2022/09/27 14:52:01;;;;;;;4.10;0.55;;;;;;;;;;4973806;28;20419;-65
2022/09/27 14:54:30;;;;;;;4.78;0.68;;;;;;;;;;4976232;28;20061;-64
2022/09/27 14:56:58;;;;;;;3.70;0.65;;;;;;;;;;4992304;28;20057;-64
2022/09/27 14:59:33;;;;;;;1.65;0.60;;;;;;;;;;4992378;28;20499;-63
2022/09/27 15:02:00;;;;;;;4.80;0.60;;;;;;;;;;4982878;28;20078;-64
2022/09/27 15:04:28;;;;;;;3.72;0.60;;;;;;;;;;4978551;28;20049;-64
2022/09/27 15:06:54;;;;;;;4.18;0.70;;;;;;;;;;4961551;28;20126;-64
2022/09/27 15:09:21;;;;;;;4.30;0.65;;;;;;;;;;4978439;28;20078;-64
2022/09/27 15:11:53;;;;;;;3.83;0.55;;;;;;;;;;4987081;28;20849;-64
2022/09/27 15:14:20;;;;;;;2.40;0.65;;;;;;;;;;4987638;28;20065;-64